createdAt,value
2018-10-07T00:01:25.099Z,14.76
2018-10-07T00:03:54.818Z,14.77
2018-10-07T00:06:24.720Z,14.77
2018-10-07T00:08:54.144Z,14.74
2018-10-07T00:11:23.840Z,14.68
2018-10-07T00:13:53.636Z,14.64
2018-10-07T00:16:23.078Z,14.60
2018-10-07T00:18:52.788Z,14.58
2018-10-07T00:21:22.644Z,14.60
2018-10-07T00:23:52.302Z,14.62
2018-10-07T00:26:22.056Z,14.60
2018-10-07T00:28:51.425Z,14.63
2018-10-07T00:31:20.834Z,14.63
2018-10-07T00:33:50.548Z,14.62
2018-10-07T00:36:20.337Z,14.61
2018-10-07T00:38:50.050Z,14.62
2018-10-07T00:41:19.724Z,14.59
2018-10-07T00:43:49.456Z,14.58
2018-10-07T00:46:18.842Z,14.59
2018-10-07T00:48:48.268Z,14.56
2018-10-07T00:51:18.028Z,14.54
2018-10-07T00:53:47.713Z,14.51
2018-10-07T00:56:17.498Z,14.52
2018-10-07T00:58:47.300Z,14.53
2018-10-07T01:01:17.157Z,14.57
2018-10-07T01:03:47.501Z,14.59
2018-10-07T01:06:17.005Z,14.57
2018-10-07T01:08:46.753Z,14.56
2018-10-07T01:11:16.473Z,14.55
2018-10-07T01:13:45.877Z,14.53
2018-10-07T01:16:15.287Z,14.53
2018-10-07T01:18:44.672Z,14.55
2018-10-07T01:21:14.210Z,14.59
2018-10-07T01:23:44.058Z,14.58
2018-10-07T01:26:13.848Z,14.54
2018-10-07T01:28:43.230Z,14.53
2018-10-07T01:31:12.988Z,14.52
2018-10-07T01:33:42.716Z,14.51
2018-10-07T01:36:12.061Z,14.49
2018-10-07T01:38:41.851Z,14.50
2018-10-07T01:41:11.576Z,14.50
2018-10-07T01:43:40.944Z,14.49
2018-10-07T01:46:10.706Z,14.52
2018-10-07T01:48:40.440Z,14.54
2018-10-07T01:51:10.172Z,14.52
2018-10-07T01:53:39.878Z,14.53
2018-10-07T01:56:09.592Z,14.55
2018-10-07T01:58:39.060Z,14.54
2018-10-07T02:01:08.552Z,14.55
2018-10-07T02:03:38.247Z,14.58
2018-10-07T02:06:07.744Z,14.62
2018-10-07T02:08:37.116Z,14.61
2018-10-07T02:11:06.640Z,14.55
2018-10-07T02:13:36.015Z,14.46
2018-10-07T02:16:05.869Z,14.42
2018-10-07T02:18:35.673Z,14.34
2018-10-07T02:21:05.053Z,14.26
2018-10-07T02:23:34.448Z,14.13
2018-10-07T02:26:04.200Z,14.01
2018-10-07T02:28:33.902Z,13.89
2018-10-07T02:31:03.256Z,13.86
2018-10-07T02:33:32.598Z,13.78
2018-10-07T02:36:02.296Z,13.71
2018-10-07T02:38:32.052Z,13.67
2018-10-07T02:41:01.451Z,13.58
2018-10-07T02:43:31.156Z,13.50
2018-10-07T02:46:00.641Z,13.49
2018-10-07T02:48:30.351Z,13.51
2018-10-07T02:51:00.189Z,13.60
2018-10-07T02:53:29.689Z,13.63
2018-10-07T02:55:59.389Z,13.68
2018-10-07T02:58:29.683Z,13.69
2018-10-07T03:00:59.527Z,13.70
2018-10-07T03:03:28.883Z,13.74
2018-10-07T03:05:58.625Z,13.72
2018-10-07T03:08:27.964Z,13.72
2018-10-07T03:10:57.339Z,13.72
2018-10-07T03:13:27.023Z,13.64
2018-10-07T03:15:56.758Z,13.58
2018-10-07T03:18:26.143Z,13.49
2018-10-07T03:20:55.809Z,13.41
2018-10-07T03:23:25.543Z,13.32
2018-10-07T03:25:55.235Z,13.29
2018-10-07T03:28:24.974Z,13.21
2018-10-07T03:30:54.603Z,13.23
2018-10-07T03:33:24.282Z,13.26
2018-10-07T03:35:53.961Z,13.22
2018-10-07T03:38:23.675Z,13.10
2018-10-07T03:40:53.074Z,13.02
2018-10-07T03:43:22.939Z,13.00
2018-10-07T03:45:52.643Z,12.96
2018-10-07T03:48:22.180Z,12.88
2018-10-07T03:50:51.838Z,12.83
2018-10-07T03:53:21.528Z,12.78
2018-10-07T03:55:51.272Z,12.70
2018-10-07T03:58:20.692Z,12.67
2018-10-07T04:00:50.546Z,12.68
2018-10-07T04:03:20.391Z,12.61
2018-10-07T04:05:50.228Z,12.54
2018-10-07T04:08:19.981Z,12.51
2018-10-07T04:10:49.692Z,12.54
2018-10-07T04:13:19.390Z,12.64
2018-10-07T04:15:48.899Z,12.64
2018-10-07T04:18:18.688Z,12.60
2018-10-07T04:20:48.051Z,12.63
2018-10-07T04:23:17.816Z,12.55
2018-10-07T04:25:47.567Z,12.46
2018-10-07T04:28:17.384Z,12.39
2018-10-07T04:30:46.847Z,12.35
2018-10-07T04:33:16.537Z,12.26
2018-10-07T04:35:46.297Z,12.24
2018-10-07T04:38:15.661Z,12.27
2018-10-07T04:40:45.390Z,12.29
2018-10-07T04:43:15.099Z,12.25
2018-10-07T04:45:44.488Z,12.15
2018-10-07T04:48:14.335Z,12.15
2018-10-07T04:50:44.024Z,12.14
2018-10-07T04:53:13.731Z,12.16
2018-10-07T04:55:43.540Z,12.09
2018-10-07T04:58:13.409Z,12.05
2018-10-07T05:00:42.819Z,12.04
2018-10-07T05:03:12.716Z,11.98
2018-10-07T05:05:42.599Z,11.90
2018-10-07T05:08:12.727Z,11.84
2018-10-07T05:10:49.253Z,11.77
2018-10-07T05:13:29.114Z,11.76
2018-10-07T05:16:01.372Z,11.75
2018-10-07T05:18:31.728Z,11.75
2018-10-07T05:21:01.772Z,11.78
2018-10-07T05:23:31.513Z,11.77
2018-10-07T05:26:01.006Z,11.75
2018-10-07T05:28:30.793Z,11.91
2018-10-07T05:31:00.550Z,11.98
2018-10-07T05:33:30.859Z,11.99
2018-10-07T05:36:00.170Z,11.96
2018-10-07T05:38:29.936Z,11.98
2018-10-07T05:41:00.466Z,11.96
2018-10-07T05:43:29.880Z,11.98
2018-10-07T05:45:59.948Z,12.02
2018-10-07T05:48:29.757Z,12.01
2018-10-07T05:50:59.678Z,11.99
2018-10-07T05:53:29.092Z,12.12
2018-10-07T05:55:58.589Z,12.12
2018-10-07T05:58:28.131Z,12.14
2018-10-07T06:01:03.816Z,12.15
2018-10-07T06:04:44.031Z,12.14
2018-10-07T06:07:13.913Z,12.24
2018-10-07T06:09:43.340Z,12.31
2018-10-07T06:12:13.155Z,12.44
2018-10-07T06:15:47.888Z,12.51
2018-10-07T06:18:17.778Z,12.58
2018-10-07T06:20:47.526Z,12.60
2018-10-07T06:23:16.970Z,12.64
2018-10-07T06:25:46.914Z,12.72
2018-10-07T06:28:16.344Z,12.83
2018-10-07T06:30:45.783Z,12.97
2018-10-07T06:33:15.345Z,13.10
2018-10-07T06:35:45.582Z,13.25
2018-10-07T06:38:15.088Z,13.37
2018-10-07T06:40:44.481Z,13.47
2018-10-07T06:43:14.552Z,13.56
2018-10-07T06:45:44.052Z,13.70
2018-10-07T06:48:13.895Z,13.81
2018-10-07T06:50:43.375Z,13.95
2018-10-07T06:53:12.875Z,14.14
2018-10-07T06:55:42.313Z,14.29
2018-10-07T06:58:11.862Z,14.47
2018-10-07T07:00:41.269Z,14.66
2018-10-07T07:03:12.170Z,14.83
2018-10-07T07:05:41.934Z,14.95
2018-10-07T07:08:11.715Z,15.09
2018-10-07T07:10:41.096Z,15.18
2018-10-07T07:13:10.992Z,15.33
2018-10-07T07:15:41.260Z,15.49
2018-10-07T07:18:11.939Z,15.63
2018-10-07T07:23:22.732Z,15.79
2018-10-07T07:25:52.524Z,15.93
2018-10-07T07:28:22.267Z,16.04
2018-10-07T07:30:52.025Z,16.11
2018-10-07T07:33:21.945Z,16.27
2018-10-07T07:35:51.301Z,16.42
2018-10-07T07:38:21.210Z,16.51
2018-10-07T07:40:51.050Z,16.56
2018-10-07T07:43:20.933Z,16.60
2018-10-07T07:45:50.790Z,16.64
2018-10-07T07:48:20.217Z,16.69
2018-10-07T07:50:50.033Z,16.82
2018-10-07T07:53:19.917Z,16.89
2018-10-07T07:55:49.293Z,16.94
2018-10-07T07:58:19.169Z,16.90
2018-10-07T08:00:48.705Z,16.85
2018-10-07T08:03:18.681Z,16.94
2018-10-07T08:05:48.499Z,16.94
2018-10-07T08:08:18.545Z,16.98
2018-10-07T08:10:48.145Z,16.97
2018-10-07T08:13:18.114Z,17.02
2018-10-07T08:15:47.581Z,16.93
2018-10-07T08:18:18.611Z,16.95
2018-10-07T08:20:48.106Z,16.90
2018-10-07T08:23:17.924Z,16.77
2018-10-07T08:25:47.674Z,16.65
2018-10-07T08:28:17.671Z,16.59
2018-10-07T08:30:47.800Z,16.45
2018-10-07T08:33:17.953Z,16.49
2018-10-07T08:35:47.414Z,16.48
2018-10-07T08:38:17.250Z,16.45
2018-10-07T08:40:46.812Z,16.55
2018-10-07T08:43:16.394Z,16.59
2018-10-07T08:45:46.001Z,16.58
2018-10-07T08:48:15.632Z,16.74
2018-10-07T08:50:46.117Z,16.86
2018-10-07T08:53:15.997Z,17.05
2018-10-07T08:55:45.420Z,17.08
2018-10-07T08:58:15.213Z,17.25
2018-10-07T09:00:44.574Z,17.59
2018-10-07T09:03:14.435Z,17.63
2018-10-07T09:05:44.218Z,17.45
2018-10-07T09:08:13.937Z,17.26
2018-10-07T09:10:43.782Z,17.07
2018-10-07T09:13:13.545Z,17.02
2018-10-07T09:15:43.373Z,17.00
2018-10-07T09:18:13.192Z,17.20
2018-10-07T09:20:42.948Z,17.04
2018-10-07T09:23:12.820Z,16.90
2018-10-07T09:25:42.257Z,16.74
2018-10-07T09:28:12.192Z,16.73
2018-10-07T09:30:41.944Z,16.44
2018-10-07T09:33:11.470Z,16.40
2018-10-07T09:35:40.902Z,16.25
2018-10-07T09:38:10.263Z,16.37
2018-10-07T09:40:39.740Z,16.38
2018-10-07T09:43:09.513Z,15.99
2018-10-07T09:45:39.248Z,16.21
2018-10-07T09:48:09.301Z,16.33
2018-10-07T09:50:39.077Z,16.46
2018-10-07T09:53:08.948Z,16.42
2018-10-07T09:55:38.745Z,16.32
2018-10-07T09:58:08.355Z,16.38
2018-10-07T10:00:40.600Z,16.17
2018-10-07T10:03:11.797Z,16.15
2018-10-07T10:05:41.592Z,16.20
2018-10-07T10:08:11.040Z,16.05
2018-10-07T10:10:40.800Z,15.93
2018-10-07T10:13:10.633Z,15.88
2018-10-07T10:15:40.401Z,15.89
2018-10-07T10:18:12.801Z,15.85
2018-10-07T10:20:51.961Z,15.88
2018-10-07T10:23:29.596Z,15.92
2018-10-07T10:26:11.264Z,15.84
2018-10-07T10:28:53.958Z,15.82
2018-10-07T10:31:35.253Z,15.73
2018-10-07T10:34:19.476Z,15.79
2018-10-07T10:37:00.520Z,15.85
2018-10-07T10:39:59.235Z,15.83
2018-10-07T10:43:09.648Z,15.67
2018-10-07T10:48:27.088Z,15.48
2018-10-07T10:51:04.339Z,15.26
2018-10-07T10:53:40.151Z,15.19
2018-10-07T10:57:19.347Z,15.22
2018-10-07T11:00:05.666Z,15.10
2018-10-07T11:04:48.389Z,14.93
2018-10-07T11:07:29.356Z,14.83
2018-10-07T11:10:21.016Z,14.86
2018-10-07T11:13:20.727Z,14.76
2018-10-07T11:16:01.243Z,14.97
2018-10-07T11:19:26.694Z,15.24
2018-10-07T11:22:20.856Z,15.20
2018-10-07T11:26:09.824Z,15.45
2018-10-07T11:28:56.621Z,15.29
2018-10-07T11:31:37.320Z,15.56
2018-10-07T11:34:27.125Z,15.56
2018-10-07T11:37:03.760Z,15.77
2018-10-07T11:39:47.024Z,15.85
2018-10-07T11:42:26.498Z,16.06
2018-10-07T11:45:06.452Z,16.02
2018-10-07T11:47:57.752Z,16.31
2018-10-07T11:50:38.751Z,16.39
2018-10-07T11:53:16.518Z,16.71
2018-10-07T11:55:46.339Z,16.89
2018-10-07T11:58:15.795Z,16.80
2018-10-07T12:00:46.131Z,16.80
2018-10-07T12:03:15.696Z,16.53
2018-10-07T12:05:45.965Z,16.30
2018-10-07T12:08:15.575Z,16.05
2018-10-07T12:10:45.157Z,15.92
2018-10-07T12:13:14.667Z,15.80
2018-10-07T12:15:44.454Z,15.45
2018-10-07T12:18:28.552Z,15.38
2018-10-07T12:20:58.086Z,15.65
2018-10-07T12:23:27.847Z,15.64
2018-10-07T12:25:57.385Z,15.52
2018-10-07T12:28:27.681Z,15.53
2018-10-07T12:30:57.719Z,15.63
2018-10-07T12:33:27.779Z,15.42
2018-10-07T12:35:57.322Z,15.44
2018-10-07T12:38:27.353Z,15.66
2018-10-07T12:40:56.826Z,15.41
2018-10-07T12:43:26.426Z,14.90
2018-10-07T12:45:55.856Z,14.65
2018-10-07T12:48:26.138Z,14.59
2018-10-07T12:50:55.616Z,14.61
2018-10-07T12:53:26.103Z,14.81
2018-10-07T12:55:55.733Z,14.63
2018-10-07T12:58:25.765Z,14.79
2018-10-07T13:00:55.309Z,14.96
2018-10-07T13:03:25.163Z,14.98
2018-10-07T13:05:55.179Z,14.56
2018-10-07T13:08:25.031Z,14.75
2018-10-07T13:10:54.670Z,14.80
2018-10-07T13:13:24.646Z,14.81
2018-10-07T13:15:54.462Z,14.68
2018-10-07T13:18:24.130Z,14.59
2018-10-07T13:20:53.973Z,14.31
2018-10-07T13:23:24.159Z,13.77
2018-10-07T13:25:54.038Z,14.04
2018-10-07T13:28:24.276Z,14.02
2018-10-07T13:30:54.150Z,13.91
2018-10-07T13:33:23.916Z,13.96
2018-10-07T13:35:53.466Z,13.76
2018-10-07T13:38:23.548Z,13.60
2018-10-07T13:40:53.723Z,13.59
2018-10-07T13:43:23.587Z,13.57
2018-10-07T13:45:53.501Z,13.39
2018-10-07T13:48:24.042Z,13.57
2018-10-07T13:50:53.920Z,13.73
2018-10-07T13:53:23.592Z,13.80
2018-10-07T13:55:54.272Z,13.91
2018-10-07T13:58:24.481Z,13.70
2018-10-07T14:00:54.599Z,13.73
2018-10-07T14:03:24.040Z,13.78
2018-10-07T14:05:54.016Z,13.67
2018-10-07T14:08:23.984Z,13.33
2018-10-07T14:10:53.880Z,13.31
2018-10-07T14:13:23.926Z,13.26
2018-10-07T14:15:54.224Z,13.45
2018-10-07T14:18:24.190Z,13.57
2018-10-07T14:20:53.990Z,13.67
2018-10-07T14:23:23.829Z,13.55
2018-10-07T14:25:53.609Z,13.62
2018-10-07T14:28:23.383Z,13.36
2018-10-07T14:30:53.142Z,13.40
2018-10-07T14:33:23.175Z,13.33
2018-10-07T14:35:52.975Z,13.23
2018-10-07T14:38:22.429Z,13.04
2018-10-07T14:40:52.247Z,13.14
2018-10-07T14:43:21.789Z,13.10
2018-10-07T14:45:51.305Z,13.03
2018-10-07T14:48:21.226Z,12.92
2018-10-07T14:50:51.009Z,12.91
2018-10-07T14:53:20.883Z,12.91
2018-10-07T14:55:50.433Z,12.72
2018-10-07T14:58:20.315Z,12.46
2018-10-07T15:00:50.217Z,12.56
2018-10-07T15:03:19.582Z,12.63
2018-10-07T15:05:49.914Z,12.45
2018-10-07T15:08:20.590Z,12.53
2018-10-07T15:10:49.936Z,12.57
2018-10-07T15:13:19.580Z,12.69
2018-10-07T15:15:49.330Z,12.64
2018-10-07T15:18:19.302Z,12.61
2018-10-07T15:20:49.071Z,12.57
2018-10-07T15:23:18.488Z,12.61
2018-10-07T15:25:47.850Z,12.51
2018-10-07T15:28:17.305Z,12.61
2018-10-07T15:30:48.074Z,12.48
2018-10-07T15:33:18.177Z,12.43
2018-10-07T15:35:48.416Z,12.42
2018-10-07T15:38:17.793Z,12.36
2018-10-07T15:40:47.914Z,12.23
2018-10-07T15:43:17.990Z,12.24
2018-10-07T15:46:10.726Z,12.23
2018-10-07T15:48:40.121Z,12.26
2018-10-07T15:51:13.237Z,12.19
2018-10-07T15:53:42.829Z,12.35
2018-10-07T15:56:13.130Z,12.33
2018-10-07T15:58:44.678Z,12.42
2018-10-07T16:01:14.545Z,12.42
2018-10-07T16:03:44.377Z,12.29
2018-10-07T16:06:15.089Z,12.23
2018-10-07T16:12:02.223Z,12.09
2018-10-07T16:14:31.997Z,12.03
2018-10-07T16:17:02.728Z,12.06
2018-10-07T16:19:32.525Z,12.04
2018-10-07T16:22:02.867Z,12.01
2018-10-07T16:24:33.045Z,12.04
2018-10-07T16:27:02.879Z,12.06
2018-10-07T16:29:32.917Z,12.03
2018-10-07T16:32:02.659Z,12.16
2018-10-07T16:34:32.325Z,12.03
2018-10-07T16:37:02.430Z,11.99
2018-10-07T16:39:32.073Z,12.07
2018-10-07T16:42:01.624Z,12.00
2018-10-07T16:44:31.549Z,11.95
2018-10-07T16:47:01.502Z,12.02
2018-10-07T16:49:31.402Z,11.89
2018-10-07T16:52:02.509Z,11.83
2018-10-07T16:54:32.621Z,11.82
2018-10-07T16:57:02.319Z,11.83
2018-10-07T16:59:32.008Z,11.85
2018-10-07T17:02:02.624Z,11.91
2018-10-07T17:04:32.169Z,11.98
2018-10-07T17:07:02.149Z,11.97
2018-10-07T17:09:31.762Z,11.96
2018-10-07T17:12:01.718Z,11.92
2018-10-07T17:14:31.905Z,12.03
2018-10-07T17:17:02.291Z,12.11
2018-10-07T17:19:32.435Z,12.25
2018-10-07T17:22:02.049Z,12.26
2018-10-07T17:24:32.037Z,12.24
2018-10-07T17:27:02.917Z,12.24
2018-10-07T17:29:32.709Z,12.11
2018-10-07T17:32:03.046Z,12.03
2018-10-07T17:34:32.897Z,11.90
2018-10-07T17:37:02.775Z,11.43
2018-10-07T17:39:32.256Z,11.91
2018-10-07T17:42:02.437Z,11.99
2018-10-07T17:44:32.332Z,11.96
2018-10-07T17:47:02.702Z,11.94
2018-10-07T17:49:32.227Z,11.93
2018-10-07T17:52:02.050Z,11.90
2018-10-07T17:54:31.996Z,11.89
2018-10-07T17:57:01.585Z,11.84
2018-10-07T17:59:31.108Z,11.81
2018-10-07T18:02:01.203Z,11.84
2018-10-07T18:04:30.693Z,11.83
2018-10-07T18:07:00.548Z,11.78
2018-10-07T18:09:30.353Z,11.74
2018-10-07T18:12:00.156Z,11.69
2018-10-07T18:14:29.601Z,11.62
2018-10-07T18:16:59.156Z,11.63
2018-10-07T18:19:29.028Z,11.62
2018-10-07T18:21:58.862Z,11.60
2018-10-07T18:24:28.688Z,11.62
2018-10-07T18:26:58.635Z,11.67
2018-10-07T18:29:28.160Z,11.66
2018-10-07T18:31:58.012Z,11.77
2018-10-07T18:34:27.941Z,11.67
2018-10-07T18:36:58.127Z,11.71
2018-10-07T18:39:27.652Z,11.77
2018-10-07T18:41:57.622Z,11.67
2018-10-07T18:44:27.509Z,11.59
2018-10-07T18:46:57.539Z,11.55
2018-10-07T18:49:28.134Z,11.53
2018-10-07T18:51:59.783Z,11.49
2018-10-07T18:54:29.767Z,11.41
2018-10-07T18:57:00.540Z,11.41
2018-10-07T18:59:30.379Z,11.29
2018-10-07T19:02:00.605Z,11.24
2018-10-07T19:04:30.168Z,11.34
2018-10-07T19:07:00.347Z,11.35
2018-10-07T19:09:30.183Z,11.34
2018-10-07T19:11:59.739Z,11.27
2018-10-07T19:14:29.761Z,11.19
2018-10-07T19:16:59.650Z,11.08
2018-10-07T19:19:29.095Z,11.03
2018-10-07T19:21:59.124Z,10.96
2018-10-07T19:24:29.001Z,10.87
2018-10-07T19:26:58.418Z,10.72
2018-10-07T19:29:27.907Z,10.68
2018-10-07T19:31:57.484Z,10.54
2018-10-07T19:34:27.241Z,10.48
2018-10-07T19:36:57.071Z,10.50
2018-10-07T19:39:26.754Z,10.41
2018-10-07T19:41:56.738Z,10.32
2018-10-07T19:44:26.620Z,10.27
2018-10-07T19:46:56.723Z,10.23
2018-10-07T19:49:26.568Z,10.12
2018-10-07T19:51:55.987Z,10.17
2018-10-07T19:54:25.806Z,10.10
2018-10-07T19:56:55.872Z,9.89
2018-10-07T19:59:25.736Z,9.70
2018-10-07T20:01:56.315Z,9.51
2018-10-07T20:04:26.096Z,9.26
2018-10-07T20:06:56.355Z,9.08
2018-10-07T20:09:25.868Z,9.14
2018-10-07T20:11:55.284Z,9.16
2018-10-07T20:14:24.849Z,8.98
2018-10-07T20:16:54.615Z,8.86
2018-10-07T20:19:24.400Z,8.89
2018-10-07T20:21:54.106Z,8.71
2018-10-07T20:24:23.417Z,8.87
2018-10-07T20:26:52.823Z,8.93
2018-10-07T20:29:22.270Z,8.79
2018-10-07T20:31:52.104Z,8.73
2018-10-07T20:34:21.498Z,8.66
2018-10-07T20:36:51.242Z,8.52
2018-10-07T20:39:21.014Z,8.49
2018-10-07T20:41:50.718Z,8.40
2018-10-07T20:44:20.455Z,8.27
2018-10-07T20:46:50.227Z,8.10
2018-10-07T20:49:19.620Z,7.91
2018-10-07T20:51:53.278Z,7.74
2018-10-07T20:54:18.827Z,7.64
2018-10-07T20:56:48.560Z,7.61
2018-10-07T20:59:18.630Z,7.47
2018-10-07T21:01:48.012Z,7.43
2018-10-07T21:04:17.416Z,7.39
2018-10-07T21:06:46.779Z,7.37
2018-10-07T21:09:16.622Z,7.32
2018-10-07T21:11:45.963Z,7.28
2018-10-07T21:14:15.726Z,7.24
2018-10-07T21:16:45.437Z,7.26
2018-10-07T21:19:14.874Z,7.23
2018-10-07T21:21:44.569Z,7.21
2018-10-07T21:24:14.031Z,7.43
2018-10-07T21:26:43.410Z,7.64
2018-10-07T21:29:12.774Z,7.69
2018-10-07T21:31:42.564Z,7.65
2018-10-07T21:34:11.968Z,7.49
2018-10-07T21:36:41.732Z,7.38
2018-10-07T21:39:12.003Z,7.39
2018-10-07T21:41:41.851Z,7.42
2018-10-07T21:44:11.200Z,7.49
2018-10-07T21:46:41.059Z,7.56
2018-10-07T21:49:10.830Z,7.91
2018-10-07T21:51:40.268Z,7.81
2018-10-07T21:54:10.022Z,7.72
2018-10-07T21:56:39.755Z,7.62
2018-10-07T21:59:09.190Z,7.60
2018-10-07T22:01:39.022Z,7.56
2018-10-07T22:04:08.726Z,7.53
2018-10-07T22:06:38.446Z,7.64
2018-10-07T22:09:09.654Z,7.81
2018-10-07T22:11:39.426Z,8.04
2018-10-07T22:14:09.170Z,8.21
2018-10-07T22:16:38.581Z,8.32
2018-10-07T22:19:08.030Z,8.32
2018-10-07T22:21:37.849Z,8.30
2018-10-07T22:24:08.314Z,8.37
2018-10-07T22:26:38.027Z,8.40
2018-10-07T22:29:07.796Z,8.41
2018-10-07T22:31:37.533Z,8.49
2018-10-07T22:34:06.964Z,8.47
2018-10-07T22:36:36.675Z,8.40
2018-10-07T22:39:08.374Z,8.30
2018-10-07T22:41:38.283Z,8.23
2018-10-07T22:44:07.617Z,8.13
2018-10-07T22:46:37.364Z,8.08
2018-10-07T22:49:07.157Z,8.04
2018-10-07T22:51:36.879Z,8.00
2018-10-07T22:54:06.437Z,7.90
2018-10-07T22:56:36.221Z,7.80
2018-10-07T22:59:05.985Z,7.73
2018-10-07T23:01:35.364Z,7.58
2018-10-07T23:04:05.101Z,7.57
2018-10-07T23:06:34.865Z,7.40
2018-10-07T23:09:05.645Z,7.21
2018-10-07T23:11:35.333Z,7.04
2018-10-07T23:14:05.186Z,6.91
2018-10-07T23:16:34.883Z,6.77
2018-10-07T23:19:04.351Z,6.64
2018-10-07T23:21:34.177Z,6.74
2018-10-07T23:24:04.156Z,6.66
2018-10-07T23:26:33.597Z,6.56
2018-10-07T23:29:03.038Z,6.52
2018-10-07T23:31:32.781Z,6.43
2018-10-07T23:34:02.524Z,6.36
2018-10-07T23:36:32.301Z,6.24
2018-10-07T23:39:02.117Z,6.20
2018-10-07T23:41:31.553Z,6.18
2018-10-07T23:44:01.314Z,6.11
2018-10-07T23:46:31.137Z,6.05
2018-10-07T23:49:00.889Z,5.98
2018-10-07T23:51:30.792Z,5.91
2018-10-07T23:54:00.597Z,5.88
2018-10-07T23:56:30.369Z,5.83
2018-10-07T23:58:59.916Z,5.77
